Nuremberg Airport

EDDN · 巴伐利亚, 德国

罗盘
风向 的 风向 的 风向 到 风向 240° Nuremberg Airport 10/28
风: 7 kt, 3 beaufort

6 kt

4 kt
改变
0 ft 1.000 2.000 3.000 4.000 5.000
Cloud Cloud
FEW 800
Cloud Cloud Cloud Cloud Cloud Cloud
BKN 2.100
Cloud Cloud Cloud Cloud Cloud Cloud Cloud Cloud
OVC 3.100
METAR EDDN 181050Z AUTO 24007KT 180V260 9999 FEW008 BKN021 OVC031 14/12 Q1012 TEMPO BKN010

METAR Nuremberg Airport - EDDN/NUE

Nuremberg Airport是,德国中的大型机场。 该机场位于纬度49,49870和经度11,07760。 该机场有一条跑道: 10/28. 本场的ICAO机场代码为EDDN。 该机场的IATA代码为NUE。 机场在Munich FIR中。

该航空气象观测是针对Nuremberg Airport在2024年5月18日 12:50, 当地时间进行的。

机场观察

风向为240°,速度为7 kt。 风向在180°和260°之间变化。

可见度为10 km 或者更多。

有几云在800 ft的高度, 碎云在2.100 ft的高度 和 乌云密布在3.100 ft的高度。 破损或更高的上限为2.100 ft。

温度和风寒是14 °C。 露点为12 °C,相对湿度为88%。 海平面上的气压为1012 hPa (QNH)。

发展趋势

  • 暂时的

    可变方向的风很小或没有。 碎云在1.000 ft的高度.

白天

今天,太阳从05:26升起,在20:57降落。 这适用于Nuremberg Airport,世界夏令时可能有所不同。 当地时间与世界标准时间之间的时差为+2 小时。 夏令时目前正在进行中。

公司介绍

我们没有关于这个机场的公司信息。

体会

到Vliegles.nl去找飞行课程,跳伞和其他飞行体验。 浏览页面,了解Nuremberg Airport附近所有可用的活动。 你也可以使用搜索功能来寻找你所在地附近的特定飞行课程、跳伞或其他飞行体验。

跑道

Id 标题 侧风 逆风 侧风 %
10/28 098°-278° 4 kt 6 kt 62 %

逆风成分最大的方向会被突出显示,并用于横风计算。 这并不一定意味着这个方向在使用。

乌云

800 ft FEW 几云
2.100 ft BKN 碎云
3.100 ft OVC 乌云密布
1.000 ft BKN 暂时的 碎云

温度 & 天气

温度 14 °C
露点 12 °C
相对湿度 88%
Kp-index 3 (0-9)

白天

日出
05:26
中午
13:12
日落
20:57 (7:35)

小工具

你想在你的网站上有一个关于Nuremberg Airport的当前航空天气(METAR)的小部件吗?

显示HTML代码
报告变更